sensor_id;sensor_type;location;lat;lon;timestamp;pressure;altitude;pressure_sealevel;temperature;humidity
37142;BME280;23041;49.816;20.092;2022-08-24T00:01:26;97799.27;;;20.25;71.88
37142;BME280;23041;49.816;20.092;2022-08-24T00:03:54;97809.27;;;20.27;71.93
37142;BME280;23041;49.816;20.092;2022-08-24T00:06:24;97812.15;;;20.22;71.98
37142;BME280;23041;49.816;20.092;2022-08-24T00:08:53;97805.81;;;20.22;72.02
37142;BME280;23041;49.816;20.092;2022-08-24T00:11:20;97809.02;;;20.25;72.09
37142;BME280;23041;49.816;20.092;2022-08-24T00:13:48;97808.14;;;20.13;72.12
37142;BME280;23041;49.816;20.092;2022-08-24T00:16:15;97797.92;;;19.94;72.14
37142;BME280;23041;49.816;20.092;2022-08-24T00:18:43;97797.21;;;20.00;72.27
37142;BME280;23041;49.816;20.092;2022-08-24T00:21:11;97790.37;;;20.11;72.38
37142;BME280;23041;49.816;20.092;2022-08-24T00:23:38;97790.37;;;20.11;72.38
37142;BME280;23041;49.816;20.092;2022-08-24T00:26:06;97790.96;;;20.20;72.53
37142;BME280;23041;49.816;20.092;2022-08-24T00:28:33;97801.91;;;20.24;72.57
37142;BME280;23041;49.816;20.092;2022-08-24T00:31:00;97807.88;;;20.27;72.57
37142;BME280;23041;49.816;20.092;2022-08-24T00:33:27;97797.30;;;20.21;72.59
37142;BME280;23041;49.816;20.092;2022-08-24T00:35:53;97799.69;;;20.18;72.65
37142;BME280;23041;49.816;20.092;2022-08-24T00:38:19;97805.47;;;20.14;72.66
37142;BME280;23041;49.816;20.092;2022-08-24T00:40:48;97810.84;;;20.18;72.69
37142;BME280;23041;49.816;20.092;2022-08-24T00:43:21;97811.75;;;20.19;72.72
37142;BME280;23041;49.816;20.092;2022-08-24T00:48:43;97818.83;;;20.30;72.62
37142;BME280;23041;49.816;20.092;2022-08-24T00:51:19;97829.70;;;20.38;72.70
37142;BME280;23041;49.816;20.092;2022-08-24T00:53:56;97829.55;;;20.27;72.73
37142;BME280;23041;49.816;20.092;2022-08-24T00:56:28;97827.25;;;20.26;72.74
37142;BME280;23041;49.816;20.092;2022-08-24T00:59:12;97828.93;;;20.28;72.74
37142;BME280;23041;49.816;20.092;2022-08-24T01:01:41;97840.16;;;20.33;72.74
37142;BME280;23041;49.816;20.092;2022-08-24T01:04:12;97837.45;;;20.19;72.69
37142;BME280;23041;49.816;20.092;2022-08-24T01:06:41;97827.78;;;20.04;72.71
37142;BME280;23041;49.816;20.092;2022-08-24T01:09:08;97834.18;;;20.10;72.78
37142;BME280;23041;49.816;20.092;2022-08-24T01:11:34;97832.91;;;20.21;72.84
37142;BME280;23041;49.816;20.092;2022-08-24T01:14:02;97835.98;;;20.23;72.89
37142;BME280;23041;49.816;20.092;2022-08-24T01:16:29;97839.05;;;20.35;72.91
37142;BME280;23041;49.816;20.092;2022-08-24T01:19:30;97844.55;;;20.40;72.88
37142;BME280;23041;49.816;20.092;2022-08-24T01:25:11;97839.11;;;20.31;72.84
37142;BME280;23041;49.816;20.092;2022-08-24T01:27:39;97835.36;;;20.24;72.85
37142;BME280;23041;49.816;20.092;2022-08-24T01:30:10;97828.89;;;20.12;72.82
37142;BME280;23041;49.816;20.092;2022-08-24T01:32:40;97828.89;;;20.12;72.82
37142;BME280;23041;49.816;20.092;2022-08-24T01:35:07;97843.43;;;20.22;72.82
37142;BME280;23041;49.816;20.092;2022-08-24T01:37:34;97844.97;;;20.23;72.81
37142;BME280;23041;49.816;20.092;2022-08-24T01:40:04;97851.94;;;20.23;72.78
37142;BME280;23041;49.816;20.092;2022-08-24T01:42:32;97848.17;;;20.16;72.81
37142;BME280;23041;49.816;20.092;2022-08-24T01:45:00;97845.39;;;20.16;72.82
37142;BME280;23041;49.816;20.092;2022-08-24T01:47:27;97846.16;;;20.16;72.83
37142;BME280;23041;49.816;20.092;2022-08-24T01:49:53;97852.02;;;20.18;72.85
37142;BME280;23041;49.816;20.092;2022-08-24T01:52:23;97845.39;;;20.16;72.87
37142;BME280;23041;49.816;20.092;2022-08-24T01:54:50;97855.00;;;20.25;72.86
37142;BME280;23041;49.816;20.092;2022-08-24T01:57:17;97865.30;;;20.29;72.84
37142;BME280;23041;49.816;20.092;2022-08-24T01:59:45;97865.59;;;20.31;72.85
37142;BME280;23041;49.816;20.092;2022-08-24T02:02:17;97860.15;;;20.22;72.83
37142;BME280;23041;49.816;20.092;2022-08-24T02:04:45;97861.83;;;20.24;72.86
37142;BME280;23041;49.816;20.092;2022-08-24T02:07:12;97852.16;;;20.19;72.95
37142;BME280;23041;49.816;20.092;2022-08-24T02:09:39;97860.44;;;20.24;72.85
37142;BME280;23041;49.816;20.092;2022-08-24T02:12:06;97867.90;;;20.43;72.45
37142;BME280;23041;49.816;20.092;2022-08-24T02:14:33;97867.90;;;20.43;72.45
37142;BME280;23041;49.816;20.092;2022-08-24T02:17:05;97867.27;;;20.43;72.80
37142;BME280;23041;49.816;20.092;2022-08-24T02:19:33;97860.59;;;20.35;73.06
37142;BME280;23041;49.816;20.092;2022-08-24T02:22:01;97860.59;;;20.35;73.06
37142;BME280;23041;49.816;20.092;2022-08-24T02:24:28;97857.02;;;20.24;72.71
37142;BME280;23041;49.816;20.092;2022-08-24T02:26:55;97872.41;;;20.30;72.77
37142;BME280;23041;49.816;20.092;2022-08-24T02:29:21;97868.95;;;20.35;72.75
37142;BME280;23041;49.816;20.092;2022-08-24T02:31:48;97873.95;;;20.41;72.74
37142;BME280;23041;49.816;20.092;2022-08-24T02:34:14;97870.55;;;20.42;72.71
37142;BME280;23041;49.816;20.092;2022-08-24T02:36:41;97861.27;;;20.30;72.69
37142;BME280;23041;49.816;20.092;2022-08-24T02:39:08;97863.77;;;20.28;72.70
37142;BME280;23041;49.816;20.092;2022-08-24T02:41:35;97857.91;;;20.26;72.71
37142;BME280;23041;49.816;20.092;2022-08-24T02:44:03;97856.66;;;20.27;72.70
37142;BME280;23041;49.816;20.092;2022-08-24T02:46:30;97862.03;;;20.30;72.71
37142;BME280;23041;49.816;20.092;2022-08-24T02:48:57;97862.47;;;20.33;72.68
37142;BME280;23041;49.816;20.092;2022-08-24T02:51:28;97860.92;;;20.32;72.66
37142;BME280;23041;49.816;20.092;2022-08-24T02:53:57;97857.02;;;20.24;72.67
37142;BME280;23041;49.816;20.092;2022-08-24T02:56:25;97852.41;;;20.21;72.69
37142;BME280;23041;49.816;20.092;2022-08-24T02:58:53;97850.14;;;20.20;72.71
37142;BME280;23041;49.816;20.092;2022-08-24T03:01:20;97846.98;;;20.22;72.73
37142;BME280;23041;49.816;20.092;2022-08-24T03:03:46;97849.56;;;20.16;72.76
37142;BME280;23041;49.816;20.092;2022-08-24T03:06:13;97854.72;;;20.23;72.76
37142;BME280;23041;49.816;20.092;2022-08-24T03:08:39;97856.03;;;20.27;72.75
37142;BME280;23041;49.816;20.092;2022-08-24T03:11:06;97863.62;;;20.27;72.74
37142;BME280;23041;49.816;20.092;2022-08-24T03:13:34;97856.53;;;20.16;72.73
37142;BME280;23041;49.816;20.092;2022-08-24T03:16:01;97865.03;;;20.17;72.77
37142;BME280;23041;49.816;20.092;2022-08-24T03:18:28;97865.03;;;20.17;72.77
37142;BME280;23041;49.816;20.092;2022-08-24T03:20:56;97866.57;;;20.18;72.82
37142;BME280;23041;49.816;20.092;2022-08-24T03:23:27;97872.69;;;20.22;72.83
37142;BME280;23041;49.816;20.092;2022-08-24T03:25:54;97873.38;;;20.27;72.81
37142;BME280;23041;49.816;20.092;2022-08-24T03:28:22;97880.48;;;20.28;72.80
37142;BME280;23041;49.816;20.092;2022-08-24T03:30:49;97875.22;;;20.20;72.80
37142;BME280;23041;49.816;20.092;2022-08-24T03:33:16;97876.74;;;20.11;72.85
37142;BME280;23041;49.816;20.092;2022-08-24T03:35:43;97878.62;;;20.09;72.86
37142;BME280;23041;49.816;20.092;2022-08-24T03:38:09;97882.94;;;20.10;72.90
37142;BME280;23041;49.816;20.092;2022-08-24T03:40:37;97881.36;;;20.14;72.93
37142;BME280;23041;49.816;20.092;2022-08-24T03:43:05;97887.17;;;20.26;72.96
37142;BME280;23041;49.816;20.092;2022-08-24T03:45:32;97888.66;;;20.31;72.62
37142;BME280;23041;49.816;20.092;2022-08-24T03:47:59;97875.22;;;20.20;72.91
37142;BME280;23041;49.816;20.092;2022-08-24T03:50:27;97875.22;;;20.20;72.91
37142;BME280;23041;49.816;20.092;2022-08-24T03:52:53;97883.77;;;20.16;72.95
37142;BME280;23041;49.816;20.092;2022-08-24T03:55:20;97877.66;;;20.12;72.96
37142;BME280;23041;49.816;20.092;2022-08-24T03:57:48;97879.38;;;20.10;72.99
37142;BME280;23041;49.816;20.092;2022-08-24T04:00:17;97881.21;;;20.13;73.03
37142;BME280;23041;49.816;20.092;2022-08-24T04:02:43;97878.89;;;20.21;73.01
37142;BME280;23041;49.816;20.092;2022-08-24T04:05:13;97863.80;;;20.08;73.07
37142;BME280;23041;49.816;20.092;2022-08-24T04:07:40;97863.80;;;20.08;73.07
37142;BME280;23041;49.816;20.092;2022-08-24T04:10:07;97870.81;;;20.03;73.07
37142;BME280;23041;49.816;20.092;2022-08-24T04:12:34;97873.20;;;20.00;73.09
37142;BME280;23041;49.816;20.092;2022-08-24T04:15:00;97874.30;;;19.98;73.13
37142;BME280;23041;49.816;20.092;2022-08-24T04:17:29;97878.00;;;20.00;73.14
37142;BME280;23041;49.816;20.092;2022-08-24T04:19:58;97879.69;;;20.02;73.19
37142;BME280;23041;49.816;20.092;2022-08-24T04:22:29;97884.75;;;20.03;73.20
37142;BME280;23041;49.816;20.092;2022-08-24T04:24:58;97880.64;;;19.98;73.22
37142;BME280;23041;49.816;20.092;2022-08-24T04:27:25;97878.56;;;19.83;73.25
37142;BME280;23041;49.816;20.092;2022-08-24T04:29:51;97883.63;;;19.75;73.29
37142;BME280;23041;49.816;20.092;2022-08-24T04:32:18;97882.16;;;19.69;73.36
37142;BME280;23041;49.816;20.092;2022-08-24T04:34:44;97884.24;;;19.64;73.45
37142;BME280;23041;49.816;20.092;2022-08-24T04:37:12;97882.48;;;19.67;73.50
37142;BME280;23041;49.816;20.092;2022-08-24T04:39:39;97890.66;;;19.80;73.57
37142;BME280;23041;49.816;20.092;2022-08-24T04:42:07;97883.91;;;19.87;73.62
37142;BME280;23041;49.816;20.092;2022-08-24T04:44:34;97876.73;;;19.80;73.65
37142;BME280;23041;49.816;20.092;2022-08-24T04:47:01;97881.31;;;19.73;73.72
37142;BME280;23041;49.816;20.092;2022-08-24T04:49:27;97873.39;;;19.66;73.76
37142;BME280;23041;49.816;20.092;2022-08-24T04:51:54;97878.12;;;19.60;73.82
37142;BME280;23041;49.816;20.092;2022-08-24T04:54:21;97876.14;;;19.56;73.89
37142;BME280;23041;49.816;20.092;2022-08-24T04:56:47;97875.44;;;19.51;73.98
37142;BME280;23041;49.816;20.092;2022-08-24T04:59:14;97883.69;;;19.60;74.05
37142;BME280;23041;49.816;20.092;2022-08-24T05:01:40;97880.36;;;19.66;74.12
37142;BME280;23041;49.816;20.092;2022-08-24T05:04:07;97878.93;;;19.56;74.46
37142;BME280;23041;49.816;20.092;2022-08-24T05:06:34;97878.93;;;19.56;74.46
37142;BME280;23041;49.816;20.092;2022-08-24T05:09:01;97872.59;;;19.55;74.29
37142;BME280;23041;49.816;20.092;2022-08-24T05:11:29;97870.09;;;19.58;74.38
37142;BME280;23041;49.816;20.092;2022-08-24T05:13:56;97861.86;;;19.48;74.45
37142;BME280;23041;49.816;20.092;2022-08-24T05:16:24;97867.86;;;19.51;74.50
37142;BME280;23041;49.816;20.092;2022-08-24T05:18:52;97877.20;;;19.59;74.55
37142;BME280;23041;49.816;20.092;2022-08-24T05:21:20;97875.66;;;19.43;74.59
37142;BME280;23041;49.816;20.092;2022-08-24T05:23:48;97881.23;;;19.43;74.66
37142;BME280;23041;49.816;20.092;2022-08-24T05:26:21;97887.09;;;19.45;74.73
37142;BME280;23041;49.816;20.092;2022-08-24T05:28:52;97892.25;;;19.42;74.81
37142;BME280;23041;49.816;20.092;2022-08-24T05:31:21;97899.68;;;19.40;74.89
37142;BME280;23041;49.816;20.092;2022-08-24T05:33:49;97915.55;;;19.44;74.95
37142;BME280;23041;49.816;20.092;2022-08-24T05:36:19;97913.39;;;19.44;74.88
37142;BME280;23041;49.816;20.092;2022-08-24T05:38:49;97919.23;;;19.61;75.06
37142;BME280;23041;49.816;20.092;2022-08-24T05:41:18;97921.22;;;19.75;75.10
37142;BME280;23041;49.816;20.092;2022-08-24T05:43:44;97918.17;;;19.83;75.14
37142;BME280;23041;49.816;20.092;2022-08-24T05:46:12;97912.10;;;19.84;75.16
37142;BME280;23041;49.816;20.092;2022-08-24T05:48:38;97915.39;;;19.83;75.19
37142;BME280;23041;49.816;20.092;2022-08-24T05:51:06;97916.28;;;19.84;75.22
37142;BME280;23041;49.816;20.092;2022-08-24T05:53:34;97919.98;;;19.86;75.21
37142;BME280;23041;49.816;20.092;2022-08-24T05:56:08;97921.30;;;19.90;75.20
37142;BME280;23041;49.816;20.092;2022-08-24T05:58:32;97918.69;;;20.02;75.23
37142;BME280;23041;49.816;20.092;2022-08-24T06:00:58;97917.91;;;20.21;75.22
37142;BME280;23041;49.816;20.092;2022-08-24T06:03:26;97916.53;;;20.31;75.20
37142;BME280;23041;49.816;20.092;2022-08-24T06:05:53;97916.62;;;20.37;75.13
37142;BME280;23041;49.816;20.092;2022-08-24T06:08:20;97905.95;;;20.35;75.10
37142;BME280;23041;49.816;20.092;2022-08-24T06:10:46;97905.87;;;20.40;75.07
37142;BME280;23041;49.816;20.092;2022-08-24T06:13:13;97916.88;;;20.39;75.04
37142;BME280;23041;49.816;20.092;2022-08-24T06:15:41;97916.88;;;20.39;75.00
37142;BME280;23041;49.816;20.092;2022-08-24T06:18:08;97927.84;;;20.43;74.95
37142;BME280;23041;49.816;20.092;2022-08-24T06:20:40;97918.69;;;20.52;74.87
37142;BME280;23041;49.816;20.092;2022-08-24T06:23:08;97913.08;;;20.62;74.86
37142;BME280;23041;49.816;20.092;2022-08-24T06:25:39;97904.34;;;20.75;74.37
37142;BME280;23041;49.816;20.092;2022-08-24T06:28:24;97904.34;;;20.75;74.37
37142;BME280;23041;49.816;20.092;2022-08-24T06:31:03;97920.36;;;20.80;74.59
37142;BME280;23041;49.816;20.092;2022-08-24T06:33:32;97920.36;;;20.80;74.59
37142;BME280;23041;49.816;20.092;2022-08-24T06:35:58;97934.50;;;20.97;74.63
37142;BME280;23041;49.816;20.092;2022-08-24T06:38:25;97936.48;;;21.06;74.54
37142;BME280;23041;49.816;20.092;2022-08-24T06:40:52;97932.92;;;21.06;74.45
37142;BME280;23041;49.816;20.092;2022-08-24T06:43:19;97924.63;;;20.75;74.41
37142;BME280;23041;49.816;20.092;2022-08-24T06:45:45;97924.63;;;20.75;74.41
37142;BME280;23041;49.816;20.092;2022-08-24T06:48:12;97933.43;;;20.78;74.23
37142;BME280;23041;49.816;20.092;2022-08-24T06:50:39;97955.03;;;20.84;74.20
37142;BME280;23041;49.816;20.092;2022-08-24T06:53:05;97955.03;;;20.84;74.20
37142;BME280;23041;49.816;20.092;2022-08-24T06:55:32;97964.80;;;20.84;74.06
37142;BME280;23041;49.816;20.092;2022-08-24T06:57:58;97964.80;;;20.84;74.06
37142;BME280;23041;49.816;20.092;2022-08-24T07:00:25;97959.98;;;20.74;74.13
37142;BME280;23041;49.816;20.092;2022-08-24T07:02:51;97959.98;;;20.74;74.13
37142;BME280;23041;49.816;20.092;2022-08-24T07:05:18;97951.95;;;20.82;74.16
37142;BME280;23041;49.816;20.092;2022-08-24T07:07:44;97952.09;;;20.83;74.14
37142;BME280;23041;49.816;20.092;2022-08-24T07:10:11;97950.08;;;20.83;74.13
37142;BME280;23041;49.816;20.092;2022-08-24T07:12:37;97955.63;;;20.93;74.11
37142;BME280;23041;49.816;20.092;2022-08-24T07:15:05;97945.75;;;20.82;74.12
37142;BME280;23041;49.816;20.092;2022-08-24T07:17:32;97955.00;;;20.94;74.13
37142;BME280;23041;49.816;20.092;2022-08-24T07:19:58;97961.30;;;21.14;74.18
37142;BME280;23041;49.816;20.092;2022-08-24T07:22:25;97963.17;;;21.23;74.21
37142;BME280;23041;49.816;20.092;2022-08-24T07:24:51;97972.36;;;21.29;74.17
37142;BME280;23041;49.816;20.092;2022-08-24T07:27:18;97970.04;;;21.38;74.07
37142;BME280;23041;49.816;20.092;2022-08-24T07:29:45;97966.14;;;21.45;74.00
37142;BME280;23041;49.816;20.092;2022-08-24T07:32:11;97949.94;;;21.34;73.93
37142;BME280;23041;49.816;20.092;2022-08-24T07:34:37;97950.11;;;21.40;73.87
37142;BME280;23041;49.816;20.092;2022-08-24T07:37:04;97948.58;;;21.39;73.84
37142;BME280;23041;49.816;20.092;2022-08-24T07:39:31;97956.89;;;21.44;73.79
37142;BME280;23041;49.816;20.092;2022-08-24T07:41:58;97960.06;;;21.78;73.78
37142;BME280;23041;49.816;20.092;2022-08-24T07:44:24;97965.22;;;21.91;73.73
37142;BME280;23041;49.816;20.092;2022-08-24T07:46:51;97963.26;;;21.97;73.64
37142;BME280;23041;49.816;20.092;2022-08-24T07:49:17;97967.94;;;21.95;73.54
37142;BME280;23041;49.816;20.092;2022-08-24T07:51:43;97962.25;;;22.00;73.49
37142;BME280;23041;49.816;20.092;2022-08-24T07:54:10;97964.16;;;21.98;73.38
37142;BME280;23041;49.816;20.092;2022-08-24T07:56:37;97967.34;;;22.02;73.30
37142;BME280;23041;49.816;20.092;2022-08-24T07:59:04;97982.25;;;22.09;73.19
37142;BME280;23041;49.816;20.092;2022-08-24T08:01:31;97982.47;;;22.05;73.06
37142;BME280;23041;49.816;20.092;2022-08-24T08:03:58;97977.94;;;21.92;72.96
37142;BME280;23041;49.816;20.092;2022-08-24T08:06:25;97971.70;;;22.08;72.95
37142;BME280;23041;49.816;20.092;2022-08-24T08:08:51;97979.91;;;22.23;72.88
37142;BME280;23041;49.816;20.092;2022-08-24T08:11:18;97984.72;;;22.44;72.82
37142;BME280;23041;49.816;20.092;2022-08-24T08:13:45;97985.51;;;22.50;72.71
37142;BME280;23041;49.816;20.092;2022-08-24T08:16:11;97982.91;;;22.67;72.62
37142;BME280;23041;49.816;20.092;2022-08-24T08:18:37;97980.02;;;22.72;72.51
37142;BME280;23041;49.816;20.092;2022-08-24T08:21:04;97978.17;;;22.90;72.39
37142;BME280;23041;49.816;20.092;2022-08-24T08:23:33;97979.88;;;23.14;72.27
37142;BME280;23041;49.816;20.092;2022-08-24T08:26:19;97988.69;;;23.34;72.06
37142;BME280;23041;49.816;20.092;2022-08-24T08:28:46;97987.28;;;23.29;71.83
37142;BME280;23041;49.816;20.092;2022-08-24T08:31:13;97983.45;;;23.26;71.63
37142;BME280;23041;49.816;20.092;2022-08-24T08:33:39;97990.33;;;23.31;71.51
37142;BME280;23041;49.816;20.092;2022-08-24T08:36:09;97995.69;;;23.40;71.39
37142;BME280;23041;49.816;20.092;2022-08-24T08:38:38;98004.40;;;23.47;71.16
37142;BME280;23041;49.816;20.092;2022-08-24T08:44:05;97998.02;;;23.75;70.78
37142;BME280;23041;49.816;20.092;2022-08-24T08:58:16;97992.82;;;24.40;69.40
37142;BME280;23041;49.816;20.092;2022-08-24T09:00:54;97974.44;;;24.45;69.07
37142;BME280;23041;49.816;20.092;2022-08-24T09:30:34;97969.97;;;26.13;65.03
37142;BME280;23041;49.816;20.092;2022-08-24T09:33:07;97964.80;;;25.93;64.70
37142;BME280;23041;49.816;20.092;2022-08-24T09:36:05;97967.48;;;25.68;64.51
37142;BME280;23041;49.816;20.092;2022-08-24T09:38:59;97971.20;;;25.28;64.35
37142;BME280;23041;49.816;20.092;2022-08-24T09:45:19;97973.45;;;25.35;64.57
37142;BME280;23041;49.816;20.092;2022-08-24T10:00:15;97972.92;;;27.26;62.67
37142;BME280;23041;49.816;20.092;2022-08-24T10:02:51;97978.38;;;27.37;62.14
37142;BME280;23041;49.816;20.092;2022-08-24T10:05:46;97969.05;;;27.29;61.59
37142;BME280;23041;49.816;20.092;2022-08-24T10:08:32;97969.14;;;27.30;61.19
37142;BME280;23041;49.816;20.092;2022-08-24T10:20:24;97970.90;;;27.33;60.35
37142;BME280;23041;49.816;20.092;2022-08-24T10:28:53;97971.94;;;26.86;59.63
37142;BME280;23041;49.816;20.092;2022-08-24T10:31:53;97961.07;;;26.64;59.70
37142;BME280;23041;49.816;20.092;2022-08-24T10:34:54;97967.84;;;26.56;59.79
37142;BME280;23041;49.816;20.092;2022-08-24T10:44:40;97966.82;;;26.96;59.75
37142;BME280;23041;49.816;20.092;2022-08-24T10:47:29;97959.47;;;26.88;59.71
37142;BME280;23041;49.816;20.092;2022-08-24T10:53:17;97957.47;;;26.57;59.79
37142;BME280;23041;49.816;20.092;2022-08-24T10:55:44;97949.31;;;26.54;59.93
37142;BME280;23041;49.816;20.092;2022-08-24T11:01:29;97968.80;;;26.70;59.89
37142;BME280;23041;49.816;20.092;2022-08-24T11:06:33;97972.59;;;26.18;59.81
37142;BME280;23041;49.816;20.092;2022-08-24T11:09:10;97967.49;;;26.04;59.94
37142;BME280;23041;49.816;20.092;2022-08-24T11:11:41;97965.11;;;26.01;60.05
37142;BME280;23041;49.816;20.092;2022-08-24T11:14:24;97959.60;;;26.15;60.13
37142;BME280;23041;49.816;20.092;2022-08-24T11:17:31;97950.69;;;26.35;60.25
37142;BME280;23041;49.816;20.092;2022-08-24T11:19:45;97953.75;;;26.68;60.33
37142;BME280;23041;49.816;20.092;2022-08-24T11:22:35;97952.02;;;27.02;60.20
37142;BME280;23041;49.816;20.092;2022-08-24T11:25:18;97951.81;;;27.32;60.10
37142;BME280;23041;49.816;20.092;2022-08-24T11:28:37;97947.89;;;27.54;59.93
37142;BME280;23041;49.816;20.092;2022-08-24T11:30:30;97947.75;;;27.85;59.75
37142;BME280;23041;49.816;20.092;2022-08-24T11:33:03;97948.36;;;28.23;59.47
37142;BME280;23041;49.816;20.092;2022-08-24T11:38:18;97952.22;;;28.79;58.70
37142;BME280;23041;49.816;20.092;2022-08-24T11:41:03;97962.08;;;28.72;58.13
37142;BME280;23041;49.816;20.092;2022-08-24T11:43:57;97964.39;;;28.54;57.70
37142;BME280;23041;49.816;20.092;2022-08-24T11:46:58;97964.39;;;28.54;57.46
37142;BME280;23041;49.816;20.092;2022-08-24T11:52:27;97955.06;;;28.66;56.88
37142;BME280;23041;49.816;20.092;2022-08-24T11:55:15;97956.41;;;28.99;56.80
37142;BME280;23041;49.816;20.092;2022-08-24T12:00:43;97960.62;;;29.81;55.95
37142;BME280;23041;49.816;20.092;2022-08-24T12:03:35;97969.38;;;30.25;55.57
37142;BME280;23041;49.816;20.092;2022-08-24T12:09:27;97973.53;;;29.89;54.69
37142;BME280;23041;49.816;20.092;2022-08-24T12:12:02;97975.52;;;29.67;54.46
37142;BME280;23041;49.816;20.092;2022-08-24T12:14:53;97978.87;;;29.45;54.39
37142;BME280;23041;49.816;20.092;2022-08-24T12:17:32;97975.31;;;28.97;54.30
37142;BME280;23041;49.816;20.092;2022-08-24T12:22:47;97982.43;;;28.38;54.63
37142;BME280;23041;49.816;20.092;2022-08-24T12:25:16;97985.09;;;27.97;54.80
37142;BME280;23041;49.816;20.092;2022-08-24T12:28:02;97986.66;;;27.73;55.08
37142;BME280;23041;49.816;20.092;2022-08-24T12:30:30;97982.17;;;27.51;55.43
37142;BME280;23041;49.816;20.092;2022-08-24T12:33:00;97982.64;;;27.43;55.72
37142;BME280;23041;49.816;20.092;2022-08-24T12:38:23;97987.84;;;27.39;56.19
37142;BME280;23041;49.816;20.092;2022-08-24T12:41:04;97983.14;;;27.29;56.23
37142;BME280;23041;49.816;20.092;2022-08-24T12:43:39;97982.95;;;27.14;56.34
37142;BME280;23041;49.816;20.092;2022-08-24T12:46:08;97985.20;;;27.09;56.48
37142;BME280;23041;49.816;20.092;2022-08-24T12:48:37;97976.80;;;26.97;56.69
37142;BME280;23041;49.816;20.092;2022-08-24T12:51:17;97976.12;;;26.79;56.86
37142;BME280;23041;49.816;20.092;2022-08-24T13:00:12;97986.42;;;26.52;57.57
37142;BME280;23041;49.816;20.092;2022-08-24T13:02:53;97984.39;;;26.40;57.83
37142;BME280;23041;49.816;20.092;2022-08-24T13:05:18;97978.42;;;26.37;57.98
37142;BME280;23041;49.816;20.092;2022-08-24T13:07:48;97977.42;;;26.35;58.03
37142;BME280;23041;49.816;20.092;2022-08-24T13:13:10;97959.95;;;26.42;58.11
37142;BME280;23041;49.816;20.092;2022-08-24T13:15:51;97947.55;;;26.63;58.27
37142;BME280;23041;49.816;20.092;2022-08-24T13:21:13;97957.45;;;27.07;58.52
37142;BME280;23041;49.816;20.092;2022-08-24T13:23:41;97956.86;;;27.46;58.37
37142;BME280;23041;49.816;20.092;2022-08-24T13:28:47;97941.84;;;28.41;57.85
37142;BME280;23041;49.816;20.092;2022-08-24T13:37:12;97909.11;;;29.27;56.39
37142;BME280;23041;49.816;20.092;2022-08-24T13:45:59;97894.22;;;29.53;55.05
37142;BME280;23041;49.816;20.092;2022-08-24T13:51:28;97886.29;;;29.04;54.89
37142;BME280;23041;49.816;20.092;2022-08-24T13:54:26;97882.41;;;29.00;55.10
37142;BME280;23041;49.816;20.092;2022-08-24T13:57:30;97883.77;;;29.13;55.20
37142;BME280;23041;49.816;20.092;2022-08-24T14:17:06;97884.53;;;28.67;54.99
37142;BME280;23041;49.816;20.092;2022-08-24T14:29:28;97900.94;;;28.68;55.65
37142;BME280;23041;49.816;20.092;2022-08-24T14:35:00;97899.47;;;29.22;55.62
37142;BME280;23041;49.816;20.092;2022-08-24T14:40:49;97888.99;;;28.82;55.05
37142;BME280;23041;49.816;20.092;2022-08-24T14:49:19;97894.42;;;28.80;55.22
37142;BME280;23041;49.816;20.092;2022-08-24T14:54:38;97887.88;;;28.12;55.17
37142;BME280;23041;49.816;20.092;2022-08-24T15:00:09;97890.92;;;28.14;55.64
37142;BME280;23041;49.816;20.092;2022-08-24T15:08:38;97933.59;;;28.17;55.49
37142;BME280;23041;49.816;20.092;2022-08-24T15:11:23;97935.81;;;27.85;55.52
37142;BME280;23041;49.816;20.092;2022-08-24T15:14:04;97943.27;;;27.63;55.71
37142;BME280;23041;49.816;20.092;2022-08-24T15:16:51;97933.20;;;27.42;55.92
37142;BME280;23041;49.816;20.092;2022-08-24T15:28:23;97907.41;;;27.13;56.84
37142;BME280;23041;49.816;20.092;2022-08-24T15:30:58;97911.59;;;27.32;57.09
37142;BME280;23041;49.816;20.092;2022-08-24T15:33:24;97908.31;;;27.53;57.27
37142;BME280;23041;49.816;20.092;2022-08-24T15:38:38;97911.61;;;27.83;57.36
37142;BME280;23041;49.816;20.092;2022-08-24T15:41:15;97908.16;;;27.90;57.40
37142;BME280;23041;49.816;20.092;2022-08-24T15:43:58;97910.11;;;28.02;57.39
37142;BME280;23041;49.816;20.092;2022-08-24T15:46:37;97905.66;;;28.07;57.28
37142;BME280;23041;49.816;20.092;2022-08-24T15:49:20;97897.41;;;27.89;57.10
37142;BME280;23041;49.816;20.092;2022-08-24T15:51:51;97897.85;;;27.86;57.20
37142;BME280;23041;49.816;20.092;2022-08-24T15:54:26;97914.55;;;27.91;57.33
37142;BME280;23041;49.816;20.092;2022-08-24T16:07:58;97917.50;;;28.05;57.29
37142;BME280;23041;49.816;20.092;2022-08-24T16:10:45;97904.92;;;27.99;57.18
37142;BME280;23041;49.816;20.092;2022-08-24T16:13:26;97910.55;;;27.93;57.20
37142;BME280;23041;49.816;20.092;2022-08-24T16:15:59;97905.22;;;27.89;57.23
37142;BME280;23041;49.816;20.092;2022-08-24T16:18:53;97906.93;;;27.66;57.25
37142;BME280;23041;49.816;20.092;2022-08-24T16:24:44;97907.41;;;27.45;57.31
37142;BME280;23041;49.816;20.092;2022-08-24T16:26:50;97905.55;;;27.34;57.37
37142;BME280;23041;49.816;20.092;2022-08-24T16:37:35;97907.94;;;27.11;57.97
37142;BME280;23041;49.816;20.092;2022-08-24T16:40:05;97903.51;;;27.09;58.15
37142;BME280;23041;49.816;20.092;2022-08-24T16:42:33;97903.16;;;27.06;58.27
37142;BME280;23041;49.816;20.092;2022-08-24T16:44:59;97908.47;;;27.03;58.42
37142;BME280;23041;49.816;20.092;2022-08-24T16:47:27;97901.12;;;26.88;58.53
37142;BME280;23041;49.816;20.092;2022-08-24T16:49:54;97906.69;;;26.75;58.72
37142;BME280;23041;49.816;20.092;2022-08-24T16:52:21;97923.22;;;26.72;58.89
37142;BME280;23041;49.816;20.092;2022-08-24T16:54:48;97930.53;;;26.62;59.10
37142;BME280;23041;49.816;20.092;2022-08-24T16:57:21;97935.23;;;26.54;59.23